sensor_id;sensor_type;location;lat;lon;timestamp;P1;durP1;ratioP1;P2;durP2;ratioP2
19691;SDS011;42748;50.016;19.890;2024-01-30T00:00:21;129.43;;;54.13;;
19691;SDS011;42748;50.016;19.890;2024-01-30T00:02:49;135.07;;;54.67;;
19691;SDS011;42748;50.016;19.890;2024-01-30T00:05:16;130.30;;;54.17;;
19691;SDS011;42748;50.016;19.890;2024-01-30T00:07:44;136.40;;;55.07;;
19691;SDS011;42748;50.016;19.890;2024-01-30T00:10:11;134.60;;;54.27;;
19691;SDS011;42748;50.016;19.890;2024-01-30T00:12:39;134.30;;;55.07;;
19691;SDS011;42748;50.016;19.890;2024-01-30T00:15:07;131.60;;;55.00;;
19691;SDS011;42748;50.016;19.890;2024-01-30T00:17:36;127.47;;;53.83;;
19691;SDS011;42748;50.016;19.890;2024-01-30T00:20:04;134.20;;;54.23;;
19691;SDS011;42748;50.016;19.890;2024-01-30T00:22:33;133.63;;;54.97;;
19691;SDS011;42748;50.016;19.890;2024-01-30T00:25:01;129.40;;;53.77;;
19691;SDS011;42748;50.016;19.890;2024-01-30T00:27:28;135.60;;;56.17;;
19691;SDS011;42748;50.016;19.890;2024-01-30T00:29:56;133.53;;;52.23;;
19691;SDS011;42748;50.016;19.890;2024-01-30T00:32:24;126.67;;;53.00;;
19691;SDS011;42748;50.016;19.890;2024-01-30T00:34:52;127.50;;;53.90;;
19691;SDS011;42748;50.016;19.890;2024-01-30T00:37:19;126.80;;;53.57;;
19691;SDS011;42748;50.016;19.890;2024-01-30T00:39:47;134.40;;;55.23;;
19691;SDS011;42748;50.016;19.890;2024-01-30T00:42:14;141.10;;;56.37;;
19691;SDS011;42748;50.016;19.890;2024-01-30T00:44:42;131.73;;;53.43;;
19691;SDS011;42748;50.016;19.890;2024-01-30T00:47:09;133.20;;;53.40;;
19691;SDS011;42748;50.016;19.890;2024-01-30T00:49:37;129.60;;;53.83;;
19691;SDS011;42748;50.016;19.890;2024-01-30T00:52:05;139.93;;;56.03;;
19691;SDS011;42748;50.016;19.890;2024-01-30T00:54:33;141.03;;;56.40;;
19691;SDS011;42748;50.016;19.890;2024-01-30T00:57:01;142.70;;;57.67;;
19691;SDS011;42748;50.016;19.890;2024-01-30T00:59:28;143.27;;;56.30;;
19691;SDS011;42748;50.016;19.890;2024-01-30T01:01:56;142.23;;;56.07;;
19691;SDS011;42748;50.016;19.890;2024-01-30T01:04:23;140.30;;;57.83;;
19691;SDS011;42748;50.016;19.890;2024-01-30T01:06:51;139.60;;;56.00;;
19691;SDS011;42748;50.016;19.890;2024-01-30T01:09:19;141.87;;;55.83;;
19691;SDS011;42748;50.016;19.890;2024-01-30T01:11:46;161.83;;;62.10;;
19691;SDS011;42748;50.016;19.890;2024-01-30T01:14:14;158.57;;;61.00;;
19691;SDS011;42748;50.016;19.890;2024-01-30T01:16:42;145.57;;;59.17;;
19691;SDS011;42748;50.016;19.890;2024-01-30T01:19:09;147.10;;;60.27;;
19691;SDS011;42748;50.016;19.890;2024-01-30T01:21:37;161.80;;;63.20;;
19691;SDS011;42748;50.016;19.890;2024-01-30T01:24:04;170.27;;;64.03;;
19691;SDS011;42748;50.016;19.890;2024-01-30T01:26:38;157.20;;;63.77;;
19691;SDS011;42748;50.016;19.890;2024-01-30T01:29:06;162.50;;;63.13;;
19691;SDS011;42748;50.016;19.890;2024-01-30T01:31:38;152.83;;;60.37;;
19691;SDS011;42748;50.016;19.890;2024-01-30T01:34:10;174.07;;;66.43;;
19691;SDS011;42748;50.016;19.890;2024-01-30T01:36:38;175.77;;;70.00;;
19691;SDS011;42748;50.016;19.890;2024-01-30T01:39:06;176.43;;;68.90;;
19691;SDS011;42748;50.016;19.890;2024-01-30T01:41:35;173.43;;;69.50;;
19691;SDS011;42748;50.016;19.890;2024-01-30T01:44:03;181.87;;;69.83;;
19691;SDS011;42748;50.016;19.890;2024-01-30T01:46:32;179.77;;;68.30;;
19691;SDS011;42748;50.016;19.890;2024-01-30T01:49:02;171.57;;;66.83;;
19691;SDS011;42748;50.016;19.890;2024-01-30T01:51:30;170.77;;;66.70;;
19691;SDS011;42748;50.016;19.890;2024-01-30T01:53:58;166.10;;;63.67;;
19691;SDS011;42748;50.016;19.890;2024-01-30T01:56:26;155.83;;;61.37;;
19691;SDS011;42748;50.016;19.890;2024-01-30T01:58:55;152.00;;;58.83;;
19691;SDS011;42748;50.016;19.890;2024-01-30T02:01:22;144.67;;;58.33;;
19691;SDS011;42748;50.016;19.890;2024-01-30T02:03:50;141.23;;;58.10;;
19691;SDS011;42748;50.016;19.890;2024-01-30T02:06:18;145.80;;;57.13;;
19691;SDS011;42748;50.016;19.890;2024-01-30T02:08:46;140.20;;;57.47;;
19691;SDS011;42748;50.016;19.890;2024-01-30T02:11:14;141.93;;;56.20;;
19691;SDS011;42748;50.016;19.890;2024-01-30T02:13:43;144.57;;;58.10;;
19691;SDS011;42748;50.016;19.890;2024-01-30T02:16:10;151.23;;;59.67;;
19691;SDS011;42748;50.016;19.890;2024-01-30T02:18:38;143.73;;;58.67;;
19691;SDS011;42748;50.016;19.890;2024-01-30T02:21:10;148.27;;;59.10;;
19691;SDS011;42748;50.016;19.890;2024-01-30T02:23:37;145.67;;;58.17;;
19691;SDS011;42748;50.016;19.890;2024-01-30T02:26:05;143.83;;;57.03;;
19691;SDS011;42748;50.016;19.890;2024-01-30T02:28:32;144.97;;;56.00;;
19691;SDS011;42748;50.016;19.890;2024-01-30T02:31:00;147.70;;;57.37;;
19691;SDS011;42748;50.016;19.890;2024-01-30T02:33:27;144.10;;;58.27;;
19691;SDS011;42748;50.016;19.890;2024-01-30T02:35:55;150.20;;;58.57;;
19691;SDS011;42748;50.016;19.890;2024-01-30T02:38:22;144.23;;;57.33;;
19691;SDS011;42748;50.016;19.890;2024-01-30T02:40:50;149.33;;;59.03;;
19691;SDS011;42748;50.016;19.890;2024-01-30T02:43:18;139.83;;;57.03;;
19691;SDS011;42748;50.016;19.890;2024-01-30T02:45:45;151.20;;;59.07;;
19691;SDS011;42748;50.016;19.890;2024-01-30T02:48:13;138.70;;;57.47;;
19691;SDS011;42748;50.016;19.890;2024-01-30T02:50:41;142.67;;;56.57;;
19691;SDS011;42748;50.016;19.890;2024-01-30T02:53:08;138.70;;;56.87;;
19691;SDS011;42748;50.016;19.890;2024-01-30T02:55:36;144.87;;;59.37;;
19691;SDS011;42748;50.016;19.890;2024-01-30T02:58:04;139.57;;;56.40;;
19691;SDS011;42748;50.016;19.890;2024-01-30T03:00:31;147.17;;;58.00;;
19691;SDS011;42748;50.016;19.890;2024-01-30T03:02:59;144.67;;;56.13;;
19691;SDS011;42748;50.016;19.890;2024-01-30T03:05:26;143.60;;;56.27;;
19691;SDS011;42748;50.016;19.890;2024-01-30T03:07:54;143.73;;;56.10;;
19691;SDS011;42748;50.016;19.890;2024-01-30T03:10:22;142.97;;;57.20;;
19691;SDS011;42748;50.016;19.890;2024-01-30T03:12:49;144.73;;;55.50;;
19691;SDS011;42748;50.016;19.890;2024-01-30T03:15:17;140.93;;;54.77;;
19691;SDS011;42748;50.016;19.890;2024-01-30T03:17:45;137.40;;;55.03;;
19691;SDS011;42748;50.016;19.890;2024-01-30T03:20:12;141.67;;;55.47;;
19691;SDS011;42748;50.016;19.890;2024-01-30T03:22:40;138.23;;;55.27;;
19691;SDS011;42748;50.016;19.890;2024-01-30T03:25:08;139.70;;;54.13;;
19691;SDS011;42748;50.016;19.890;2024-01-30T03:27:36;130.43;;;52.80;;
19691;SDS011;42748;50.016;19.890;2024-01-30T03:30:03;144.80;;;56.17;;
19691;SDS011;42748;50.016;19.890;2024-01-30T03:32:31;143.70;;;56.33;;
19691;SDS011;42748;50.016;19.890;2024-01-30T03:34:58;141.00;;;55.47;;
19691;SDS011;42748;50.016;19.890;2024-01-30T03:37:27;145.47;;;55.40;;
19691;SDS011;42748;50.016;19.890;2024-01-30T03:39:54;150.43;;;55.57;;
19691;SDS011;42748;50.016;19.890;2024-01-30T03:42:22;145.60;;;56.10;;
19691;SDS011;42748;50.016;19.890;2024-01-30T03:44:50;146.83;;;57.10;;
19691;SDS011;42748;50.016;19.890;2024-01-30T03:47:21;151.03;;;56.93;;
19691;SDS011;42748;50.016;19.890;2024-01-30T03:49:49;156.67;;;60.03;;
19691;SDS011;42748;50.016;19.890;2024-01-30T03:52:17;154.10;;;59.67;;
19691;SDS011;42748;50.016;19.890;2024-01-30T03:54:44;174.40;;;64.20;;
19691;SDS011;42748;50.016;19.890;2024-01-30T03:57:12;168.90;;;63.97;;
19691;SDS011;42748;50.016;19.890;2024-01-30T03:59:41;180.27;;;66.43;;
19691;SDS011;42748;50.016;19.890;2024-01-30T04:02:10;183.50;;;70.27;;
19691;SDS011;42748;50.016;19.890;2024-01-30T04:04:39;191.17;;;73.07;;
19691;SDS011;42748;50.016;19.890;2024-01-30T04:07:07;188.40;;;72.83;;
19691;SDS011;42748;50.016;19.890;2024-01-30T04:09:34;197.77;;;72.80;;
19691;SDS011;42748;50.016;19.890;2024-01-30T04:12:02;196.07;;;74.20;;
19691;SDS011;42748;50.016;19.890;2024-01-30T04:14:30;185.30;;;73.90;;
19691;SDS011;42748;50.016;19.890;2024-01-30T04:16:58;191.63;;;73.10;;
19691;SDS011;42748;50.016;19.890;2024-01-30T04:19:25;202.83;;;76.83;;
19691;SDS011;42748;50.016;19.890;2024-01-30T04:21:53;221.17;;;82.60;;
19691;SDS011;42748;50.016;19.890;2024-01-30T04:24:20;219.00;;;82.60;;
19691;SDS011;42748;50.016;19.890;2024-01-30T04:26:48;219.10;;;81.33;;
19691;SDS011;42748;50.016;19.890;2024-01-30T04:29:16;215.87;;;81.70;;
19691;SDS011;42748;50.016;19.890;2024-01-30T04:31:43;215.43;;;81.27;;
19691;SDS011;42748;50.016;19.890;2024-01-30T04:34:11;222.00;;;81.80;;
19691;SDS011;42748;50.016;19.890;2024-01-30T04:36:38;211.47;;;79.87;;
19691;SDS011;42748;50.016;19.890;2024-01-30T04:39:06;211.90;;;78.77;;
19691;SDS011;42748;50.016;19.890;2024-01-30T04:41:35;202.07;;;75.43;;
19691;SDS011;42748;50.016;19.890;2024-01-30T04:44:02;197.80;;;75.43;;
19691;SDS011;42748;50.016;19.890;2024-01-30T04:46:30;196.37;;;76.33;;
19691;SDS011;42748;50.016;19.890;2024-01-30T04:48:58;193.67;;;73.40;;
19691;SDS011;42748;50.016;19.890;2024-01-30T04:51:25;184.43;;;71.80;;
19691;SDS011;42748;50.016;19.890;2024-01-30T04:53:53;190.63;;;70.37;;
19691;SDS011;42748;50.016;19.890;2024-01-30T04:56:20;185.30;;;72.63;;
19691;SDS011;42748;50.016;19.890;2024-01-30T04:58:48;191.57;;;73.27;;
19691;SDS011;42748;50.016;19.890;2024-01-30T05:01:16;190.87;;;71.90;;
19691;SDS011;42748;50.016;19.890;2024-01-30T05:03:44;191.67;;;71.73;;
19691;SDS011;42748;50.016;19.890;2024-01-30T05:06:12;177.73;;;72.33;;
19691;SDS011;42748;50.016;19.890;2024-01-30T05:08:39;185.97;;;69.60;;
19691;SDS011;42748;50.016;19.890;2024-01-30T05:11:07;176.93;;;69.37;;
19691;SDS011;42748;50.016;19.890;2024-01-30T05:13:35;180.03;;;68.30;;
19691;SDS011;42748;50.016;19.890;2024-01-30T05:16:02;179.07;;;70.37;;
19691;SDS011;42748;50.016;19.890;2024-01-30T05:18:30;170.27;;;68.47;;
19691;SDS011;42748;50.016;19.890;2024-01-30T05:20:58;184.57;;;67.27;;
19691;SDS011;42748;50.016;19.890;2024-01-30T05:23:26;163.83;;;66.77;;
19691;SDS011;42748;50.016;19.890;2024-01-30T05:25:53;166.60;;;65.57;;
19691;SDS011;42748;50.016;19.890;2024-01-30T05:28:21;172.77;;;66.27;;
19691;SDS011;42748;50.016;19.890;2024-01-30T05:30:49;172.00;;;66.90;;
19691;SDS011;42748;50.016;19.890;2024-01-30T05:33:16;166.17;;;60.97;;
19691;SDS011;42748;50.016;19.890;2024-01-30T05:35:44;162.37;;;59.30;;
19691;SDS011;42748;50.016;19.890;2024-01-30T05:38:12;158.80;;;61.67;;
19691;SDS011;42748;50.016;19.890;2024-01-30T05:40:40;164.77;;;63.47;;
19691;SDS011;42748;50.016;19.890;2024-01-30T05:43:07;167.13;;;63.67;;
19691;SDS011;42748;50.016;19.890;2024-01-30T05:45:35;173.20;;;66.70;;
19691;SDS011;42748;50.016;19.890;2024-01-30T05:48:03;166.70;;;63.17;;
19691;SDS011;42748;50.016;19.890;2024-01-30T05:50:31;169.90;;;64.93;;
19691;SDS011;42748;50.016;19.890;2024-01-30T05:52:58;164.40;;;63.90;;
19691;SDS011;42748;50.016;19.890;2024-01-30T05:55:26;163.70;;;63.40;;
19691;SDS011;42748;50.016;19.890;2024-01-30T05:57:54;174.07;;;63.03;;
19691;SDS011;42748;50.016;19.890;2024-01-30T06:00:22;176.87;;;62.13;;
19691;SDS011;42748;50.016;19.890;2024-01-30T06:02:49;163.47;;;62.97;;
19691;SDS011;42748;50.016;19.890;2024-01-30T06:05:17;168.53;;;61.73;;
19691;SDS011;42748;50.016;19.890;2024-01-30T06:07:44;157.93;;;59.73;;
19691;SDS011;42748;50.016;19.890;2024-01-30T06:10:12;157.23;;;59.87;;
19691;SDS011;42748;50.016;19.890;2024-01-30T06:12:40;169.53;;;61.10;;
19691;SDS011;42748;50.016;19.890;2024-01-30T06:15:08;160.43;;;58.83;;
19691;SDS011;42748;50.016;19.890;2024-01-30T06:17:35;164.43;;;59.63;;
19691;SDS011;42748;50.016;19.890;2024-01-30T06:20:03;151.27;;;57.97;;
19691;SDS011;42748;50.016;19.890;2024-01-30T06:22:31;144.87;;;56.47;;
19691;SDS011;42748;50.016;19.890;2024-01-30T06:24:59;149.50;;;57.40;;
19691;SDS011;42748;50.016;19.890;2024-01-30T06:27:27;199.00;;;75.43;;
19691;SDS011;42748;50.016;19.890;2024-01-30T06:29:54;157.03;;;57.60;;
19691;SDS011;42748;50.016;19.890;2024-01-30T06:32:22;163.73;;;63.13;;
19691;SDS011;42748;50.016;19.890;2024-01-30T06:34:50;141.37;;;54.03;;
19691;SDS011;42748;50.016;19.890;2024-01-30T06:37:18;143.67;;;54.17;;
19691;SDS011;42748;50.016;19.890;2024-01-30T06:39:46;147.23;;;56.63;;
19691;SDS011;42748;50.016;19.890;2024-01-30T06:42:13;156.07;;;57.53;;
19691;SDS011;42748;50.016;19.890;2024-01-30T06:44:41;125.10;;;49.83;;
19691;SDS011;42748;50.016;19.890;2024-01-30T06:47:08;129.20;;;51.87;;
19691;SDS011;42748;50.016;19.890;2024-01-30T06:49:36;135.50;;;53.30;;
19691;SDS011;42748;50.016;19.890;2024-01-30T06:52:06;133.50;;;52.80;;
19691;SDS011;42748;50.016;19.890;2024-01-30T06:54:33;137.53;;;53.43;;
19691;SDS011;42748;50.016;19.890;2024-01-30T06:57:01;131.07;;;52.30;;
19691;SDS011;42748;50.016;19.890;2024-01-30T06:59:29;128.87;;;51.33;;
19691;SDS011;42748;50.016;19.890;2024-01-30T07:01:56;129.50;;;50.80;;
19691;SDS011;42748;50.016;19.890;2024-01-30T07:04:24;123.53;;;50.27;;
19691;SDS011;42748;50.016;19.890;2024-01-30T07:06:52;115.47;;;48.60;;
19691;SDS011;42748;50.016;19.890;2024-01-30T07:09:20;114.00;;;48.77;;
19691;SDS011;42748;50.016;19.890;2024-01-30T07:11:49;113.83;;;47.17;;
19691;SDS011;42748;50.016;19.890;2024-01-30T07:14:17;113.97;;;48.73;;
19691;SDS011;42748;50.016;19.890;2024-01-30T07:16:45;107.97;;;48.93;;
19691;SDS011;42748;50.016;19.890;2024-01-30T07:19:12;101.87;;;46.27;;
19691;SDS011;42748;50.016;19.890;2024-01-30T07:21:40;95.70;;;45.87;;
19691;SDS011;42748;50.016;19.890;2024-01-30T07:24:07;105.13;;;46.30;;
19691;SDS011;42748;50.016;19.890;2024-01-30T07:26:35;95.53;;;46.50;;
19691;SDS011;42748;50.016;19.890;2024-01-30T07:29:03;91.80;;;44.73;;
19691;SDS011;42748;50.016;19.890;2024-01-30T07:31:31;95.63;;;44.57;;
19691;SDS011;42748;50.016;19.890;2024-01-30T07:34:00;100.20;;;47.05;;
19691;SDS011;42748;50.016;19.890;2024-01-30T07:36:28;90.65;;;45.38;;
19691;SDS011;42748;50.016;19.890;2024-01-30T07:38:55;98.25;;;47.50;;
19691;SDS011;42748;50.016;19.890;2024-01-30T07:41:23;95.78;;;45.10;;
19691;SDS011;42748;50.016;19.890;2024-01-30T07:43:51;90.80;;;44.95;;
19691;SDS011;42748;50.016;19.890;2024-01-30T07:46:20;88.97;;;44.28;;
19691;SDS011;42748;50.016;19.890;2024-01-30T07:48:48;93.85;;;45.55;;
19691;SDS011;42748;50.016;19.890;2024-01-30T07:51:20;89.57;;;46.17;;
19691;SDS011;42748;50.016;19.890;2024-01-30T07:53:47;96.15;;;47.17;;
19691;SDS011;42748;50.016;19.890;2024-01-30T07:56:15;88.60;;;44.92;;
19691;SDS011;42748;50.016;19.890;2024-01-30T07:58:42;81.70;;;43.20;;
19691;SDS011;42748;50.016;19.890;2024-01-30T08:01:10;84.50;;;45.17;;
19691;SDS011;42748;50.016;19.890;2024-01-30T08:03:38;83.22;;;45.08;;
19691;SDS011;42748;50.016;19.890;2024-01-30T08:06:08;86.80;;;44.67;;
19691;SDS011;42748;50.016;19.890;2024-01-30T08:08:35;84.13;;;44.63;;
19691;SDS011;42748;50.016;19.890;2024-01-30T08:11:04;84.25;;;44.85;;
19691;SDS011;42748;50.016;19.890;2024-01-30T08:13:33;79.78;;;44.15;;
19691;SDS011;42748;50.016;19.890;2024-01-30T08:16:00;82.28;;;44.38;;
19691;SDS011;42748;50.016;19.890;2024-01-30T08:18:28;83.47;;;45.38;;
19691;SDS011;42748;50.016;19.890;2024-01-30T08:20:55;77.45;;;43.13;;
19691;SDS011;42748;50.016;19.890;2024-01-30T08:23:23;79.93;;;44.40;;
19691;SDS011;42748;50.016;19.890;2024-01-30T08:25:51;76.15;;;44.78;;
19691;SDS011;42748;50.016;19.890;2024-01-30T08:28:19;80.80;;;45.08;;
19691;SDS011;42748;50.016;19.890;2024-01-30T08:30:47;81.38;;;45.70;;
19691;SDS011;42748;50.016;19.890;2024-01-30T08:33:15;81.13;;;46.05;;
19691;SDS011;42748;50.016;19.890;2024-01-30T08:35:42;79.35;;;45.20;;
19691;SDS011;42748;50.016;19.890;2024-01-30T08:38:10;84.43;;;44.97;;
19691;SDS011;42748;50.016;19.890;2024-01-30T08:40:39;87.93;;;45.40;;
19691;SDS011;42748;50.016;19.890;2024-01-30T08:43:06;84.65;;;45.13;;
19691;SDS011;42748;50.016;19.890;2024-01-30T08:45:36;82.68;;;45.22;;
19691;SDS011;42748;50.016;19.890;2024-01-30T08:48:04;81.03;;;45.33;;
19691;SDS011;42748;50.016;19.890;2024-01-30T08:50:32;88.32;;;45.10;;
19691;SDS011;42748;50.016;19.890;2024-01-30T08:52:59;84.68;;;46.00;;
19691;SDS011;42748;50.016;19.890;2024-01-30T08:55:27;84.10;;;44.95;;
19691;SDS011;42748;50.016;19.890;2024-01-30T08:57:55;83.13;;;45.92;;
19691;SDS011;42748;50.016;19.890;2024-01-30T09:00:22;78.45;;;44.83;;
19691;SDS011;42748;50.016;19.890;2024-01-30T09:02:50;79.90;;;44.92;;
19691;SDS011;42748;50.016;19.890;2024-01-30T09:05:18;80.70;;;45.13;;
19691;SDS011;42748;50.016;19.890;2024-01-30T09:07:45;75.93;;;43.70;;
19691;SDS011;42748;50.016;19.890;2024-01-30T09:10:13;75.60;;;44.08;;
19691;SDS011;42748;50.016;19.890;2024-01-30T09:12:44;76.95;;;43.33;;
19691;SDS011;42748;50.016;19.890;2024-01-30T09:15:12;73.50;;;44.30;;
19691;SDS011;42748;50.016;19.890;2024-01-30T09:17:40;78.32;;;45.38;;
19691;SDS011;42748;50.016;19.890;2024-01-30T09:20:08;72.63;;;41.92;;
19691;SDS011;42748;50.016;19.890;2024-01-30T09:22:36;68.50;;;41.10;;
19691;SDS011;42748;50.016;19.890;2024-01-30T09:25:04;66.75;;;40.35;;
19691;SDS011;42748;50.016;19.890;2024-01-30T09:27:31;68.18;;;41.13;;
19691;SDS011;42748;50.016;19.890;2024-01-30T09:29:59;69.28;;;40.80;;
19691;SDS011;42748;50.016;19.890;2024-01-30T09:32:27;67.72;;;40.88;;
19691;SDS011;42748;50.016;19.890;2024-01-30T09:34:54;67.72;;;39.38;;
19691;SDS011;42748;50.016;19.890;2024-01-30T09:37:22;66.95;;;38.60;;
19691;SDS011;42748;50.016;19.890;2024-01-30T09:39:53;67.57;;;39.55;;
19691;SDS011;42748;50.016;19.890;2024-01-30T09:42:28;66.32;;;37.63;;
19691;SDS011;42748;50.016;19.890;2024-01-30T09:44:59;59.47;;;36.05;;
19691;SDS011;42748;50.016;19.890;2024-01-30T09:47:27;59.67;;;36.47;;
19691;SDS011;42748;50.016;19.890;2024-01-30T09:49:55;59.17;;;35.00;;
19691;SDS011;42748;50.016;19.890;2024-01-30T09:52:23;58.10;;;36.03;;
19691;SDS011;42748;50.016;19.890;2024-01-30T09:54:51;62.83;;;35.35;;
19691;SDS011;42748;50.016;19.890;2024-01-30T09:57:20;60.97;;;35.65;;
19691;SDS011;42748;50.016;19.890;2024-01-30T09:59:48;59.03;;;33.88;;
19691;SDS011;42748;50.016;19.890;2024-01-30T10:02:18;62.60;;;34.53;;
19691;SDS011;42748;50.016;19.890;2024-01-30T10:04:49;58.25;;;31.33;;
19691;SDS011;42748;50.016;19.890;2024-01-30T10:07:17;56.47;;;31.00;;
19691;SDS011;42748;50.016;19.890;2024-01-30T10:09:46;57.45;;;30.90;;
19691;SDS011;42748;50.016;19.890;2024-01-30T10:12:14;59.47;;;31.85;;
19691;SDS011;42748;50.016;19.890;2024-01-30T10:14:42;57.33;;;30.42;;
19691;SDS011;42748;50.016;19.890;2024-01-30T10:17:09;49.92;;;27.55;;
19691;SDS011;42748;50.016;19.890;2024-01-30T10:19:50;47.70;;;25.27;;
19691;SDS011;42748;50.016;19.890;2024-01-30T10:22:18;41.80;;;21.17;;
19691;SDS011;42748;50.016;19.890;2024-01-30T10:24:46;34.88;;;18.35;;
19691;SDS011;42748;50.016;19.890;2024-01-30T10:27:14;33.80;;;18.55;;
19691;SDS011;42748;50.016;19.890;2024-01-30T10:29:41;38.95;;;20.58;;
19691;SDS011;42748;50.016;19.890;2024-01-30T10:32:09;38.60;;;19.63;;
19691;SDS011;42748;50.016;19.890;2024-01-30T10:34:37;39.10;;;19.92;;
19691;SDS011;42748;50.016;19.890;2024-01-30T10:37:08;41.25;;;20.75;;
19691;SDS011;42748;50.016;19.890;2024-01-30T10:39:42;46.88;;;23.20;;
19691;SDS011;42748;50.016;19.890;2024-01-30T10:42:11;47.50;;;23.67;;
19691;SDS011;42748;50.016;19.890;2024-01-30T10:47:26;45.47;;;23.45;;
19691;SDS011;42748;50.016;19.890;2024-01-30T10:49:54;40.72;;;21.95;;
19691;SDS011;42748;50.016;19.890;2024-01-30T10:52:23;42.70;;;20.83;;
19691;SDS011;42748;50.016;19.890;2024-01-30T10:54:56;42.20;;;20.75;;
19691;SDS011;42748;50.016;19.890;2024-01-30T10:57:24;41.90;;;20.60;;
19691;SDS011;42748;50.016;19.890;2024-01-30T10:59:56;41.47;;;20.08;;
19691;SDS011;42748;50.016;19.890;2024-01-30T11:02:27;42.70;;;19.73;;
19691;SDS011;42748;50.016;19.890;2024-01-30T11:04:56;38.10;;;19.85;;
19691;SDS011;42748;50.016;19.890;2024-01-30T11:07:25;42.17;;;20.85;;
19691;SDS011;42748;50.016;19.890;2024-01-30T11:09:59;39.58;;;20.02;;
19691;SDS011;42748;50.016;19.890;2024-01-30T11:12:27;40.15;;;19.98;;
19691;SDS011;42748;50.016;19.890;2024-01-30T11:20:36;38.38;;;20.33;;
19691;SDS011;42748;50.016;19.890;2024-01-30T11:23:03;46.47;;;20.98;;
19691;SDS011;42748;50.016;19.890;2024-01-30T11:25:33;44.85;;;20.10;;
19691;SDS011;42748;50.016;19.890;2024-01-30T11:28:01;34.55;;;18.95;;
19691;SDS011;42748;50.016;19.890;2024-01-30T11:30:30;36.90;;;18.95;;
19691;SDS011;42748;50.016;19.890;2024-01-30T11:33:04;39.00;;;18.75;;
19691;SDS011;42748;50.016;19.890;2024-01-30T11:35:34;37.20;;;18.15;;
19691;SDS011;42748;50.016;19.890;2024-01-30T11:38:03;36.10;;;18.05;;
19691;SDS011;42748;50.016;19.890;2024-01-30T11:40:31;38.00;;;18.45;;
19691;SDS011;42748;50.016;19.890;2024-01-30T11:43:03;35.88;;;17.85;;
19691;SDS011;42748;50.016;19.890;2024-01-30T11:45:31;37.92;;;19.25;;
19691;SDS011;42748;50.016;19.890;2024-01-30T11:47:59;46.05;;;21.73;;
19691;SDS011;42748;50.016;19.890;2024-01-30T11:50:30;43.17;;;21.20;;
19691;SDS011;42748;50.016;19.890;2024-01-30T11:52:59;39.15;;;20.52;;
19691;SDS011;42748;50.016;19.890;2024-01-30T11:55:26;40.22;;;19.73;;
19691;SDS011;42748;50.016;19.890;2024-01-30T11:58:01;40.85;;;20.00;;
19691;SDS011;42748;50.016;19.890;2024-01-30T12:00:29;39.28;;;20.38;;
19691;SDS011;42748;50.016;19.890;2024-01-30T12:03:01;42.72;;;20.38;;
19691;SDS011;42748;50.016;19.890;2024-01-30T12:05:30;40.55;;;20.42;;
19691;SDS011;42748;50.016;19.890;2024-01-30T12:07:58;39.58;;;20.10;;
19691;SDS011;42748;50.016;19.890;2024-01-30T12:10:28;40.50;;;20.35;;
19691;SDS011;42748;50.016;19.890;2024-01-30T12:12:56;40.50;;;20.67;;
19691;SDS011;42748;50.016;19.890;2024-01-30T12:15:24;41.80;;;20.83;;
19691;SDS011;42748;50.016;19.890;2024-01-30T12:17:52;42.97;;;21.60;;
19691;SDS011;42748;50.016;19.890;2024-01-30T12:20:20;38.22;;;20.92;;
19691;SDS011;42748;50.016;19.890;2024-01-30T12:22:49;42.53;;;21.70;;
19691;SDS011;42748;50.016;19.890;2024-01-30T12:25:17;45.05;;;21.95;;
19691;SDS011;42748;50.016;19.890;2024-01-30T12:27:47;43.42;;;21.17;;
19691;SDS011;42748;50.016;19.890;2024-01-30T12:30:19;42.83;;;21.35;;
19691;SDS011;42748;50.016;19.890;2024-01-30T12:32:51;47.88;;;22.38;;
19691;SDS011;42748;50.016;19.890;2024-01-30T12:35:19;50.50;;;23.15;;
19691;SDS011;42748;50.016;19.890;2024-01-30T12:37:48;51.67;;;22.52;;
19691;SDS011;42748;50.016;19.890;2024-01-30T12:40:17;44.05;;;22.52;;
19691;SDS011;42748;50.016;19.890;2024-01-30T12:42:46;42.08;;;21.95;;
19691;SDS011;42748;50.016;19.890;2024-01-30T12:45:17;43.58;;;21.38;;
19691;SDS011;42748;50.016;19.890;2024-01-30T12:47:49;49.58;;;22.70;;
19691;SDS011;42748;50.016;19.890;2024-01-30T12:50:18;48.78;;;23.80;;
19691;SDS011;42748;50.016;19.890;2024-01-30T12:52:45;53.33;;;26.08;;
19691;SDS011;42748;50.016;19.890;2024-01-30T12:55:15;55.17;;;26.00;;
19691;SDS011;42748;50.016;19.890;2024-01-30T12:57:44;55.85;;;27.08;;
19691;SDS011;42748;50.016;19.890;2024-01-30T13:00:12;55.03;;;26.88;;
19691;SDS011;42748;50.016;19.890;2024-01-30T13:02:40;55.05;;;27.20;;
19691;SDS011;42748;50.016;19.890;2024-01-30T13:05:09;58.97;;;26.95;;
19691;SDS011;42748;50.016;19.890;2024-01-30T13:07:37;58.50;;;26.30;;
19691;SDS011;42748;50.016;19.890;2024-01-30T13:10:05;52.97;;;26.75;;
19691;SDS011;42748;50.016;19.890;2024-01-30T13:12:33;51.42;;;27.20;;
19691;SDS011;42748;50.016;19.890;2024-01-30T13:15:01;49.85;;;27.00;;
19691;SDS011;42748;50.016;19.890;2024-01-30T13:17:30;57.45;;;27.95;;
19691;SDS011;42748;50.016;19.890;2024-01-30T13:19:58;57.55;;;27.48;;
19691;SDS011;42748;50.016;19.890;2024-01-30T13:22:37;59.20;;;27.52;;
19691;SDS011;42748;50.016;19.890;2024-01-30T13:25:06;57.15;;;26.08;;
19691;SDS011;42748;50.016;19.890;2024-01-30T13:27:34;60.83;;;28.33;;
19691;SDS011;42748;50.016;19.890;2024-01-30T13:30:02;55.83;;;27.15;;
19691;SDS011;42748;50.016;19.890;2024-01-30T13:32:30;51.17;;;26.98;;
19691;SDS011;42748;50.016;19.890;2024-01-30T13:34:58;59.42;;;27.15;;
19691;SDS011;42748;50.016;19.890;2024-01-30T13:37:26;59.45;;;28.65;;
19691;SDS011;42748;50.016;19.890;2024-01-30T13:39:54;56.00;;;27.23;;
19691;SDS011;42748;50.016;19.890;2024-01-30T13:42:22;53.67;;;27.17;;
19691;SDS011;42748;50.016;19.890;2024-01-30T13:44:50;58.65;;;28.30;;
19691;SDS011;42748;50.016;19.890;2024-01-30T13:47:17;57.20;;;28.52;;
19691;SDS011;42748;50.016;19.890;2024-01-30T13:49:48;59.03;;;27.38;;
19691;SDS011;42748;50.016;19.890;2024-01-30T13:52:16;64.78;;;28.88;;
19691;SDS011;42748;50.016;19.890;2024-01-30T13:54:46;98.82;;;29.88;;
19691;SDS011;42748;50.016;19.890;2024-01-30T13:57:14;72.82;;;29.35;;
19691;SDS011;42748;50.016;19.890;2024-01-30T13:59:41;66.70;;;30.85;;
19691;SDS011;42748;50.016;19.890;2024-01-30T14:02:09;60.88;;;29.00;;
19691;SDS011;42748;50.016;19.890;2024-01-30T14:04:37;59.47;;;30.35;;
19691;SDS011;42748;50.016;19.890;2024-01-30T14:07:05;61.08;;;30.67;;
19691;SDS011;42748;50.016;19.890;2024-01-30T14:09:33;65.72;;;31.13;;
19691;SDS011;42748;50.016;19.890;2024-01-30T14:12:01;68.45;;;32.28;;
19691;SDS011;42748;50.016;19.890;2024-01-30T14:14:28;68.03;;;32.15;;
19691;SDS011;42748;50.016;19.890;2024-01-30T14:16:56;68.97;;;32.67;;